Time;durP1;ratioP1;P1;durP2;ratioP2;P2;SDS_P1;SDS_P2;PMS_P1;PMS_P2;Temp;Humidity;BMP_temperature;BMP_pressure;BME280_temperature;BME280_humidity;BME280_pressure;Samples;Min_cycle;Max_cycle;Signal;HPM_P1;HPM_P2
2021/04/20 00:01:43;;;;;;;8.10;6.07;;;;;;;7.09;67.57;92654.44;2038330;70;20149;-71
2021/04/20 00:04:08;;;;;;;8.98;5.70;;;;;;;7.23;67.28;92645.59;2038490;70;20239;-76
2021/04/20 00:06:35;;;;;;;8.50;5.97;;;;;;;7.35;66.22;92652.09;2038449;70;20159;-77
2021/04/20 00:09:00;;;;;;;7.63;5.53;;;;;;;7.25;66.65;92651.38;2038422;70;20175;-71
2021/04/20 00:11:26;;;;;;;7.88;6.05;;;;;;;7.34;64.09;92650.63;2037816;70;20147;-71
2021/04/20 00:13:52;;;;;;;7.88;5.72;;;;;;;7.34;66.15;92639.41;2038487;70;20523;-74
2021/04/20 00:16:17;;;;;;;8.43;5.85;;;;;;;7.27;65.88;92640.31;2038231;70;20243;-75
2021/04/20 00:18:43;;;;;;;8.27;5.60;;;;;;;7.19;65.08;92645.31;2038445;70;20233;-75
2021/04/20 00:21:09;;;;;;;10.30;5.50;;;;;;;7.27;66.17;92643.09;2038409;70;20190;-74
2021/04/20 00:23:35;;;;;;;7.68;6.00;;;;;;;7.30;65.76;92637.06;2038661;70;20205;-71
2021/04/20 00:26:00;;;;;;;7.43;5.35;;;;;;;7.30;64.70;92637.06;2039455;70;20156;-71
2021/04/20 00:28:28;;;;;;;7.50;5.47;;;;;;;7.41;64.57;92641.31;2039017;70;20571;-73
2021/04/20 00:30:58;;;;;;;9.30;6.07;;;;;;;7.22;65.72;92644.88;2038299;70;20140;-71
2021/04/20 00:33:23;;;;;;;9.07;5.82;;;;;;;7.22;65.28;92641.34;2038368;70;20139;-76
2021/04/20 00:35:49;;;;;;;10.27;6.68;;;;;;;7.07;66.05;92639.59;2038324;70;20179;-74
2021/04/20 00:38:15;;;;;;;10.88;6.88;;;;;;;6.84;67.93;92634.44;2037626;70;20592;-74
2021/04/20 00:40:41;;;;;;;8.82;6.35;;;;;;;6.36;69.94;92627.44;2037814;70;20604;-71
2021/04/20 00:43:07;;;;;;;10.10;6.38;;;;;;;6.79;68.17;92630.59;2038507;70;20156;-74
2021/04/20 00:45:35;;;;;;;9.57;6.55;;;;;;;6.77;68.98;92627.63;2038325;70;20143;-71
2021/04/20 00:48:02;;;;;;;12.50;6.55;;;;;;;6.96;68.27;92629.69;2038221;70;20174;-73
2021/04/20 00:50:34;;;;;;;9.32;6.40;;;;;;;7.08;67.19;92629.84;2040205;70;20242;-71
2021/04/20 00:53:00;;;;;;;8.32;5.82;;;;;;;6.88;67.71;92627.06;2038422;70;20168;-77
2021/04/20 00:55:28;;;;;;;8.13;6.40;;;;;;;7.01;66.64;92619.53;2037528;70;20172;-76
2021/04/20 00:57:53;;;;;;;9.38;6.28;;;;;;;6.98;65.94;92618.66;2037771;70;20144;-86
2021/04/20 01:00:25;;;;;;;9.60;6.40;;;;;;;7.02;65.18;92615.44;2038147;70;20171;-71
2021/04/20 01:02:51;;;;;;;9.77;6.28;;;;;;;7.05;65.88;92612.16;2038318;70;20644;-75
2021/04/20 01:05:20;;;;;;;9.07;6.57;;;;;;;6.94;66.67;92612.03;2038659;70;20151;-73
2021/04/20 01:07:46;;;;;;;9.90;6.38;;;;;;;6.97;65.90;92600.41;2038364;70;20140;-81
2021/04/20 01:10:13;;;;;;;8.55;6.28;;;;;;;6.87;65.70;92603.22;2037964;70;20164;-75
2021/04/20 01:12:41;;;;;;;9.82;6.30;;;;;;;6.87;64.55;92606.00;2037998;70;20148;-75
2021/04/20 01:15:10;;;;;;;8.50;6.00;;;;;;;6.77;65.61;92598.94;2038053;70;20258;-74
2021/04/20 01:17:36;;;;;;;8.63;6.30;;;;;;;6.51;66.51;92604.06;2038622;70;20171;-72
2021/04/20 01:20:07;;;;;;;8.38;6.10;;;;;;;6.33;66.11;92611.13;2038489;70;20182;-72
2021/04/20 01:22:36;;;;;;;10.00;6.97;;;;;;;6.72;65.82;92605.56;2038430;70;20347;-75
2021/04/20 01:25:04;;;;;;;8.27;6.20;;;;;;;6.78;65.94;92603.94;2038326;70;20146;-76
2021/04/20 01:27:30;;;;;;;8.85;6.25;;;;;;;6.82;65.25;92606.28;2038254;70;20661;-77
2021/04/20 01:29:57;;;;;;;8.43;6.18;;;;;;;6.72;65.32;92603.50;2038231;70;20178;-75
2021/04/20 01:32:24;;;;;;;8.50;6.40;;;;;;;6.69;65.19;92601.88;2038342;70;20154;-75
2021/04/20 01:34:51;;;;;;;9.88;6.88;;;;;;;6.58;65.88;92588.47;2040213;70;20606;-76
2021/04/20 01:37:17;;;;;;;9.70;6.50;;;;;;;6.70;65.28;92594.97;2038202;70;20144;-71
2021/04/20 01:39:44;;;;;;;8.73;6.43;;;;;;;6.85;64.52;92591.13;2037751;70;20144;-74
2021/04/20 01:42:12;;;;;;;9.73;6.25;;;;;;;6.78;63.87;92592.00;2038174;70;20188;-71
2021/04/20 01:44:39;;;;;;;9.07;6.75;;;;;;;6.81;64.09;92588.03;2037388;70;20491;-73
2021/04/20 01:47:05;;;;;;;7.53;6.13;;;;;;;6.82;65.33;92586.69;2034813;70;20152;-71
2021/04/20 01:49:34;;;;;;;9.45;6.38;;;;;;;6.51;66.05;92589.34;2038166;70;20151;-76
2021/04/20 01:52:00;;;;;;;9.60;6.65;;;;;;;6.61;65.88;92593.63;2038252;70;20179;-71
2021/04/20 01:54:26;;;;;;;8.93;6.13;;;;;;;6.75;65.75;92593.94;2038157;70;20535;-76
2021/04/20 01:56:56;;;;;;;8.90;6.55;;;;;;;6.42;66.44;92587.28;2037591;70;20558;-71
2021/04/20 01:59:24;;;;;;;11.20;6.68;;;;;;;6.71;65.82;92582.44;2038117;70;20637;-72
2021/04/20 02:01:51;;;;;;;9.02;6.20;;;;;;;6.76;65.24;92587.00;2038356;70;20168;-84
2021/04/20 02:04:16;;;;;;;10.00;6.35;;;;;;;6.60;65.62;92586.56;2038300;70;20147;-75
2021/04/20 02:06:42;;;;;;;9.98;6.68;;;;;;;6.69;65.55;92587.91;2038698;70;20155;-75
2021/04/20 02:09:08;;;;;;;8.82;6.00;;;;;;;6.78;65.09;92589.19;2038689;70;20140;-79
2021/04/20 02:11:34;;;;;;;8.85;6.57;;;;;;;6.71;65.86;92590.81;2038757;70;20663;-82
2021/04/20 02:14:01;;;;;;;10.48;6.43;;;;;;;6.82;64.92;92584.63;2038738;70;20227;-81
2021/04/20 02:16:27;;;;;;;8.98;5.93;;;;;;;6.62;64.93;92588.75;2038722;70;20596;-80
2021/04/20 02:18:55;;;;;;;7.53;5.75;;;;;;;6.63;64.94;92593.03;2038293;70;20179;-81
2021/04/20 02:21:22;;;;;;;9.02;6.32;;;;;;;6.76;63.92;92587.00;2038768;70;20152;-75
2021/04/20 02:23:48;;;;;;;9.55;6.43;;;;;;;6.79;64.10;92587.91;2038796;70;20231;-78
2021/04/20 02:26:18;;;;;;;8.48;5.93;;;;;;;6.67;64.36;92590.53;2038728;70;20179;-75
2021/04/20 02:28:44;;;;;;;9.55;6.55;;;;;;;6.85;64.18;92582.72;2038728;70;20159;-78
2021/04/20 02:31:10;;;;;;;9.15;6.47;;;;;;;6.70;64.67;92583.03;2038832;70;20151;-78
2021/04/20 02:33:36;;;;;;;9.50;6.43;;;;;;;6.74;64.25;92588.94;2038892;70;20156;-79
2021/04/20 02:36:04;;;;;;;8.30;5.95;;;;;;;6.89;63.56;92585.81;2038795;70;20147;-80
2021/04/20 02:38:29;;;;;;;9.43;6.13;;;;;;;6.90;64.43;92589.34;2038831;70;20704;-79
2021/04/20 02:40:56;;;;;;;8.27;5.95;;;;;;;6.71;64.60;92579.63;2038718;70;20163;-81
2021/04/20 02:43:23;;;;;;;9.90;6.78;;;;;;;6.30;65.90;92579.47;2038748;70;20215;-81
2021/04/20 02:45:52;;;;;;;10.23;7.15;;;;;;;6.52;66.11;92579.63;2038595;70;20174;-77
2021/04/20 02:48:18;;;;;;;8.57;6.20;;;;;;;6.67;65.85;92582.13;2038139;70;20227;-80
2021/04/20 02:50:45;;;;;;;9.15;6.18;;;;;;;6.61;65.01;92585.25;2038122;70;20143;-79
2021/04/20 02:53:17;;;;;;;8.40;5.85;;;;;;;6.49;66.42;92583.59;2038862;70;20204;-80
2021/04/20 02:55:44;;;;;;;8.52;6.13;;;;;;;6.67;65.93;92579.34;2039317;70;20151;-73
2021/04/20 02:58:20;;;;;;;9.75;6.07;;;;;;;6.90;65.10;92578.16;2039740;70;20156;-72
2021/04/20 03:00:54;;;;;;;8.90;6.07;;;;;;;6.82;65.02;92569.91;2042793;70;20159;-72
2021/04/20 03:03:20;;;;;;;9.35;6.32;;;;;;;6.85;65.09;92580.66;2039554;70;20317;-73
2021/04/20 03:05:47;;;;;;;9.18;5.60;;;;;;;6.80;64.85;92569.78;2038686;70;20310;-81
2021/04/20 03:08:13;;;;;;;8.05;5.63;;;;;;;6.88;65.10;92568.31;2038725;70;20147;-72
2021/04/20 03:10:42;;;;;;;8.27;6.22;;;;;;;6.88;64.47;92570.38;2038627;70;20175;-84
2021/04/20 03:13:08;;;;;;;8.57;6.10;;;;;;;6.70;65.65;92575.38;2038592;70;20163;-84
2021/04/20 03:15:34;;;;;;;9.43;5.90;;;;;;;6.75;65.48;92568.00;2038511;70;20224;-75
2021/04/20 03:18:00;;;;;;;8.15;5.57;;;;;;;6.77;65.04;92565.34;2038737;70;20167;-82
2021/04/20 03:20:26;;;;;;;8.07;5.88;;;;;;;6.81;65.77;92571.97;2038664;70;20155;-75
2021/04/20 03:22:52;;;;;;;9.48;6.18;;;;;;;6.59;66.46;92578.75;2038701;70;20136;-83
2021/04/20 03:25:24;;;;;;;8.30;6.32;;;;;;;6.59;67.22;92570.34;2038740;70;20151;-85
2021/04/20 03:27:54;;;;;;;8.10;5.90;;;;;;;6.61;66.22;92573.31;2038674;70;20168;-76
2021/04/20 03:30:31;;;;;;;8.10;6.00;;;;;;;6.64;67.48;92574.91;2038656;70;20187;-86
2021/04/20 03:32:59;;;;;;;9.18;6.75;;;;;;;6.54;66.37;92576.97;2038660;70;20219;-78
2021/04/20 03:35:35;;;;;;;10.18;7.07;;;;;;;6.50;66.26;92573.88;2038553;70;20148;-71
2021/04/20 03:38:12;;;;;;;8.55;6.35;;;;;;;6.59;65.66;92565.50;2038755;70;20635;-72
2021/04/20 03:40:46;;;;;;;9.13;6.40;;;;;;;6.58;65.79;92568.88;2038478;70;20254;-80
2021/04/20 03:43:14;;;;;;;9.48;6.50;;;;;;;6.67;65.47;92573.75;2038638;70;20150;-76
2021/04/20 03:46:07;;;;;;;8.00;5.90;;;;;;;6.59;65.19;92573.16;2038359;70;20716;-82
2021/04/20 03:48:40;;;;;;;8.82;6.30;;;;;;;6.20;65.37;92567.53;2038014;70;20219;-80
2021/04/20 03:51:12;;;;;;;8.88;6.20;;;;;;;6.20;65.61;92567.53;2038613;70;20255;-74
2021/04/20 03:53:45;;;;;;;10.35;6.03;;;;;;;6.35;65.77;92570.03;2038511;70;20148;-72
2021/04/20 03:56:12;;;;;;;7.45;5.70;;;;;;;6.60;65.42;92566.25;2038478;70;20279;-76
2021/04/20 03:58:39;;;;;;;9.05;6.22;;;;;;;6.75;64.79;92568.75;2038489;70;20151;-78
2021/04/20 04:01:09;;;;;;;8.05;6.07;;;;;;;6.80;64.35;92566.97;2038389;70;20147;-77
2021/04/20 04:03:37;;;;;;;11.30;8.10;;;;;;;6.90;63.86;92564.16;2038480;70;20127;-81
2021/04/20 04:06:05;;;;;;;8.40;6.43;;;;;;;6.69;64.40;92564.75;2037932;70;20150;-78
2021/04/20 04:08:35;;;;;;;24.23;14.07;;;;;;;6.77;63.80;92568.88;2038405;70;20152;-71
2021/04/20 04:11:02;;;;;;;22.70;14.65;;;;;;;6.82;64.00;92567.09;2038181;70;20203;-77
2021/04/20 04:13:29;;;;;;;13.45;9.52;;;;;;;6.90;64.24;92558.56;2038469;70;20146;-82
2021/04/20 04:16:01;;;;;;;8.75;6.35;;;;;;;6.85;64.76;92568.75;2038395;70;20164;-78
2021/04/20 04:18:29;;;;;;;10.05;6.60;;;;;;;6.48;65.10;92573.75;2038493;70;20698;-80
2021/04/20 04:21:01;;;;;;;13.07;7.85;;;;;;;6.34;65.36;92568.56;2038445;70;20239;-78
2021/04/20 04:23:53;;;;;;;9.10;6.95;;;;;;;6.31;64.86;92569.75;2038605;70;20611;-82
2021/04/20 04:26:28;;;;;;;10.57;7.55;;;;;;;6.45;65.06;92575.66;2037883;70;20142;-75
2021/04/20 04:28:57;;;;;;;10.77;7.53;;;;;;;6.58;64.52;92578.00;2038375;70;20170;-81
2021/04/20 04:31:23;;;;;;;10.70;6.40;;;;;;;6.39;64.41;92575.22;2038434;70;20231;-77
2021/04/20 04:33:51;;;;;;;9.63;6.40;;;;;;;6.62;63.94;92572.72;2038391;70;20154;-81
2021/04/20 04:36:17;;;;;;;15.00;9.60;;;;;;;6.72;64.24;92583.91;2038543;70;20151;-77
2021/04/20 04:38:44;;;;;;;8.85;6.20;;;;;;;6.86;63.61;92582.13;2038418;70;20143;-75
2021/04/20 04:41:11;;;;;;;9.75;6.40;;;;;;;6.70;63.50;92583.78;2038506;70;20186;-74
2021/04/20 04:43:37;;;;;;;10.02;6.05;;;;;;;6.85;63.83;92579.94;2038452;70;20150;-83
2021/04/20 04:46:03;;;;;;;8.45;5.90;;;;;;;6.91;63.50;92582.44;2038142;70;20152;-79
2021/04/20 04:48:30;;;;;;;10.35;5.78;;;;;;;6.91;63.82;92585.22;2038469;70;20152;-74
2021/04/20 04:50:59;;;;;;;9.30;5.40;;;;;;;6.96;63.48;92584.91;2038431;70;20600;-78
2021/04/20 04:53:25;;;;;;;9.43;5.88;;;;;;;6.85;63.52;92589.06;2038336;70;20227;-72
2021/04/20 04:55:55;;;;;;;7.53;5.63;;;;;;;6.99;63.26;92597.00;2038323;70;20151;-71
2021/04/20 04:58:26;;;;;;;9.18;5.68;;;;;;;7.01;62.96;92591.53;2038481;70;20179;-73
2021/04/20 05:00:54;;;;;;;8.68;5.80;;;;;;;7.18;62.32;92594.19;2038274;70;20144;-75
2021/04/20 05:03:22;;;;;;;8.65;5.82;;;;;;;7.00;63.11;92596.41;2038513;70;20180;-77
2021/04/20 05:06:01;;;;;;;10.65;6.22;;;;;;;6.94;63.17;92595.25;2038369;70;20144;-84
2021/04/20 05:08:28;;;;;;;12.95;6.38;;;;;;;7.01;62.90;92599.94;2038529;70;20179;-79
2021/04/20 05:11:01;;;;;;;10.05;6.55;;;;;;;6.88;63.35;92604.69;2038363;70;20580;-78
2021/04/20 05:13:27;;;;;;;9.98;6.90;;;;;;;7.13;62.59;92600.81;2038396;70;20234;-72
2021/04/20 05:15:53;;;;;;;10.40;6.30;;;;;;;7.02;63.09;92598.63;2038213;70;20239;-81
2021/04/20 05:18:20;;;;;;;10.38;6.30;;;;;;;6.67;64.55;92606.59;2038389;70;20178;-74
2021/04/20 05:20:46;;;;;;;9.68;6.20;;;;;;;6.79;63.74;92604.69;2038723;70;20587;-74
2021/04/20 05:23:16;;;;;;;9.15;6.10;;;;;;;7.10;62.37;92607.59;2039048;70;20627;-72
2021/04/20 05:25:42;;;;;;;9.43;5.80;;;;;;;7.39;61.10;92602.69;2038378;70;20183;-72
2021/04/20 05:28:07;;;;;;;10.43;6.32;;;;;;;7.24;61.71;92605.84;2039772;70;20144;-75
2021/04/20 05:30:34;;;;;;;8.30;5.97;;;;;;;7.43;61.55;92609.94;2040494;70;20153;-72
2021/04/20 05:33:00;;;;;;;10.77;6.82;;;;;;;7.18;62.69;92605.38;2038609;70;20152;-75
2021/04/20 05:35:27;;;;;;;9.02;6.72;;;;;;;7.40;61.33;92606.22;2038595;70;20235;-74
2021/04/20 05:37:53;;;;;;;10.70;6.90;;;;;;;7.39;61.14;92611.09;2038693;70;20538;-84
2021/04/20 05:40:22;;;;;;;10.57;6.68;;;;;;;7.16;62.42;92608.03;2038607;70;20166;-75
2021/04/20 05:42:47;;;;;;;9.73;6.90;;;;;;;7.19;62.33;92620.84;2039135;70;20607;-82
2021/04/20 05:45:15;;;;;;;11.80;6.35;;;;;;;6.93;63.62;92616.91;2038561;70;20162;-78
2021/04/20 05:47:43;;;;;;;11.52;7.13;;;;;;;7.09;63.16;92611.72;2038777;70;20144;-79
2021/04/20 05:50:12;;;;;;;11.95;6.95;;;;;;;7.32;62.61;92605.66;2039137;70;20159;-81
2021/04/20 05:52:38;;;;;;;11.25;7.07;;;;;;;7.30;62.31;92613.91;2039266;70;20241;-77
2021/04/20 05:55:07;;;;;;;10.82;7.22;;;;;;;7.48;62.33;92612.41;2038766;70;20229;-72
2021/04/20 05:57:33;;;;;;;11.52;7.70;;;;;;;7.15;63.32;92609.38;2039505;70;20151;-80
2021/04/20 06:00:00;;;;;;;10.43;7.28;;;;;;;7.20;63.50;92607.59;2038250;70;20151;-81
2021/04/20 06:02:31;;;;;;;9.60;6.65;;;;;;;7.23;63.76;92609.22;2038435;70;20156;-83
2021/04/20 06:05:00;;;;;;;11.55;6.88;;;;;;;7.32;63.83;92606.38;2038360;70;20151;-77
2021/04/20 06:07:26;;;;;;;10.95;7.40;;;;;;;7.48;62.83;92606.06;2037704;70;20154;-72
2021/04/20 06:09:52;;;;;;;13.73;8.80;;;;;;;7.31;63.59;92613.31;2038278;70;20271;-76
2021/04/20 06:12:18;;;;;;;10.52;7.50;;;;;;;7.12;64.62;92600.09;2038186;70;20158;-73
2021/04/20 06:14:50;;;;;;;11.02;8.25;;;;;;;7.49;63.86;92608.28;2037555;70;20206;-78
2021/04/20 06:17:17;;;;;;;11.25;7.72;;;;;;;7.38;64.08;92617.31;2038257;70;20148;-71
2021/04/20 06:19:42;;;;;;;11.07;7.60;;;;;;;7.26;64.76;92619.22;2038241;70;20234;-72
2021/04/20 06:22:12;;;;;;;9.73;6.68;;;;;;;7.24;64.18;92611.44;2038460;70;20615;-76
2021/04/20 06:24:45;;;;;;;8.20;6.45;;;;;;;7.45;63.35;92613.59;2038372;70;20232;-74
2021/04/20 06:27:13;;;;;;;10.68;6.70;;;;;;;7.26;64.12;92613.63;2038991;70;20206;-72
2021/04/20 06:29:39;;;;;;;11.63;6.80;;;;;;;7.62;62.81;92618.28;2038673;70;20178;-71
2021/04/20 06:32:05;;;;;;;9.00;6.63;;;;;;;6.91;64.17;92622.34;2038576;70;20579;-72
2021/04/20 06:34:31;;;;;;;9.48;6.78;;;;;;;7.04;63.85;92626.75;2038169;70;20155;-71
2021/04/20 06:36:57;;;;;;;8.85;6.43;;;;;;;7.70;62.79;92623.69;2038264;70;20155;-73
2021/04/20 06:39:23;;;;;;;9.82;6.82;;;;;;;7.62;62.28;92623.88;2038154;70;20591;-74
2021/04/20 06:41:55;;;;;;;10.40;7.20;;;;;;;7.42;62.95;92623.16;2038207;70;20241;-76
2021/04/20 06:44:35;;;;;;;10.18;6.85;;;;;;;7.46;62.73;92629.06;2038059;70;20158;-76
2021/04/20 06:47:13;;;;;;;8.15;6.07;;;;;;;7.43;63.42;92630.25;2038144;70;20140;-71
2021/04/20 06:49:43;;;;;;;11.93;7.15;;;;;;;7.20;64.63;92635.59;2038715;70;20239;-76
2021/04/20 06:52:18;;;;;;;11.75;7.63;;;;;;;7.24;64.03;92625.44;2038678;70;20555;-72
2021/04/20 06:54:52;;;;;;;10.18;7.28;;;;;;;7.68;62.93;92627.09;2038612;70;20175;-77
2021/04/20 06:57:30;;;;;;;11.07;7.72;;;;;;;7.66;62.68;92626.97;2038785;70;20147;-71
2021/04/20 07:00:19;;;;;;;10.10;6.45;;;;;;;7.81;61.37;92626.63;2038700;70;20151;-74
2021/04/20 07:02:50;;;;;;;10.27;7.22;;;;;;;7.81;60.88;92623.81;2038727;70;20224;-75
2021/04/20 07:05:29;;;;;;;10.05;7.65;;;;;;;7.39;62.56;92615.97;2038613;70;20155;-76
2021/04/20 07:08:13;;;;;;;11.73;6.88;;;;;;;7.75;60.99;92617.06;2040472;70;20159;-72
2021/04/20 07:10:42;;;;;;;10.05;6.53;;;;;;;7.51;61.64;92616.81;2038601;70;20148;-72
2021/04/20 07:13:11;;;;;;;10.10;6.97;;;;;;;8.31;59.93;92620.22;2038558;70;20159;-77
2021/04/20 07:15:44;;;;;;;10.35;7.07;;;;;;;8.29;59.27;92622.88;2038440;70;20162;-76
2021/04/20 07:18:09;;;;;;;9.38;6.70;;;;;;;8.27;59.84;92624.81;2038700;70;20235;-72
2021/04/20 07:20:53;;;;;;;11.73;7.38;;;;;;;8.74;58.82;92617.47;2038566;70;20587;-76
2021/04/20 07:23:55;;;;;;;10.20;6.75;;;;;;;8.28;58.56;92624.19;2038551;70;20143;-76
2021/04/20 07:26:46;;;;;;;9.00;6.47;;;;;;;8.93;57.52;92621.47;2038582;70;20171;-75
2021/04/20 07:29:33;;;;;;;10.20;6.43;;;;;;;8.31;58.38;92616.66;2038648;70;20231;-77
2021/04/20 07:32:11;;;;;;;10.35;6.68;;;;;;;8.43;58.26;92620.34;2038522;70;20671;-77
2021/04/20 07:34:48;;;;;;;11.57;6.43;;;;;;;8.73;56.94;92618.06;2038497;70;20582;-72
2021/04/20 07:37:42;;;;;;;7.85;5.65;;;;;;;8.33;56.57;92614.00;2038510;70;20160;-80
2021/04/20 07:40:40;;;;;;;9.52;6.40;;;;;;;9.18;55.41;92618.91;2038501;70;20151;-75
2021/04/20 07:43:25;;;;;;;7.57;5.72;;;;;;;9.24;54.91;92619.28;2038601;70;20148;-73
2021/04/20 07:46:25;;;;;;;9.32;5.88;;;;;;;8.97;55.71;92608.41;2038310;70;20166;-75
2021/04/20 07:48:59;;;;;;;15.02;6.15;;;;;;;8.86;55.91;92609.09;2038565;70;20162;-79
2021/04/20 07:51:38;;;;;;;8.05;5.80;;;;;;;9.09;55.76;92609.22;2038497;70;20595;-80
2021/04/20 07:54:11;;;;;;;9.77;6.10;;;;;;;9.80;53.97;92607.34;2038463;70;20156;-73
2021/04/20 07:56:45;;;;;;;9.25;6.03;;;;;;;9.78;53.70;92610.03;2038573;70;20148;-74
2021/04/20 07:59:17;;;;;;;9.27;5.90;;;;;;;9.98;52.90;92609.81;2038891;70;20352;-73
2021/04/20 08:01:54;;;;;;;7.65;5.45;;;;;;;10.49;51.34;92607.28;2039539;70;20151;-75
2021/04/20 08:04:59;;;;;;;8.80;5.70;;;;;;;10.18;51.16;92605.44;2038635;70;20143;-80
2021/04/20 08:07:51;;;;;;;9.25;6.28;;;;;;;11.08;49.81;92599.44;2038669;70;20152;-72
2021/04/20 08:10:18;;;;;;;10.00;6.45;;;;;;;11.31;49.09;92592.97;2038570;70;20679;-80
2021/04/20 08:13:03;;;;;;;8.02;5.78;;;;;;;10.93;49.08;92595.81;2038440;70;20503;-75
2021/04/20 08:15:39;;;;;;;6.93;5.43;;;;;;;11.63;49.14;92594.78;2038325;70;20151;-76
2021/04/20 08:18:12;;;;;;;6.85;5.25;;;;;;;11.87;47.14;92601.06;2038452;70;20160;-74
2021/04/20 08:20:41;;;;;;;6.57;4.97;;;;;;;11.43;47.10;92597.22;2038376;70;20144;-72
2021/04/20 08:23:09;;;;;;;5.47;4.25;;;;;;;11.99;45.66;92592.53;2038439;70;20178;-74
2021/04/20 08:25:44;;;;;;;6.28;4.53;;;;;;;12.17;45.37;92589.94;2038428;70;20599;-77
2021/04/20 08:28:35;;;;;;;7.13;4.82;;;;;;;12.89;46.23;92594.34;2038563;70;20195;-74
2021/04/20 08:31:15;;;;;;;5.75;4.80;;;;;;;13.05;44.25;92602.91;2038308;70;20175;-78
2021/04/20 08:33:44;;;;;;;7.93;5.30;;;;;;;11.83;44.86;92595.22;2038434;70;20178;-75
2021/04/20 08:36:39;;;;;;;8.57;4.95;;;;;;;12.58;43.21;92589.25;2038416;70;20599;-75
2021/04/20 08:39:20;;;;;;;7.35;5.13;;;;;;;12.39;42.76;92582.66;2037382;70;20140;-77
2021/04/20 08:41:57;;;;;;;6.45;5.05;;;;;;;13.29;43.72;92592.13;2040312;70;20156;-75
2021/04/20 08:44:22;;;;;;;5.88;4.57;;;;;;;11.94;43.58;92579.56;2038288;70;20611;-81
2021/04/20 08:47:01;;;;;;;6.10;5.00;;;;;;;13.62;42.22;92578.16;2037735;70;20151;-77
2021/04/20 08:49:45;;;;;;;6.47;5.18;;;;;;;14.03;42.62;92585.00;2038460;70;20231;-78
2021/04/20 08:52:32;;;;;;;5.72;4.32;;;;;;;14.64;41.10;92582.81;2038406;70;20163;-74
2021/04/20 08:55:07;;;;;;;5.03;4.22;;;;;;;13.10;40.93;92579.13;2038372;70;20139;-79
2021/04/20 08:57:58;;;;;;;5.22;4.00;;;;;;;14.14;40.45;92576.31;2038380;70;20512;-74
2021/04/20 09:00:41;;;;;;;5.40;4.20;;;;;;;14.47;39.40;92581.34;2038205;70;20148;-79
2021/04/20 09:03:25;;;;;;;;;;;;;;;14.61;39.93;92578.44;2038508;70;20166;-81
2021/04/20 09:05:56;;;;;;;4.90;4.22;;;;;;;15.82;39.38;92572.84;2038483;70;20151;-76
2021/04/20 09:08:56;;;;;;;4.95;4.15;;;;;;;16.43;38.35;92575.16;2038380;70;20136;-83
2021/04/20 09:11:35;;;;;;;4.82;3.90;;;;;;;16.81;35.20;92572.28;2038246;70;20217;-79
2021/04/20 09:14:09;;;;;;;6.03;4.85;;;;;;;15.15;35.71;92561.59;2038288;70;20156;-80
2021/04/20 09:16:45;;;;;;;4.97;4.47;;;;;;;15.86;35.58;92561.66;2038185;70;20219;-75
2021/04/20 09:19:17;;;;;;;8.70;4.90;;;;;;;16.92;33.96;92568.44;2037772;70;20282;-75
2021/04/20 09:21:53;;;;;;;9.02;4.72;;;;;;;16.93;34.24;92563.47;2038207;70;20267;-75
2021/04/20 09:24:20;;;;;;;6.70;5.20;;;;;;;15.39;34.19;92553.34;2038313;70;20175;-80
2021/04/20 09:27:10;;;;;;;5.55;4.43;;;;;;;15.76;34.83;92558.44;2038287;70;20155;-78
2021/04/20 09:29:47;;;;;;;7.00;5.63;;;;;;;16.18;33.71;92550.81;2038139;70;20178;-76
2021/04/20 09:32:22;;;;;;;5.78;4.60;;;;;;;16.62;31.82;92553.81;2038298;70;20152;-77
2021/04/20 09:34:50;;;;;;;5.30;4.60;;;;;;;16.99;33.19;92552.31;2038364;70;20611;-79
2021/04/20 09:37:20;;;;;;;5.57;4.70;;;;;;;15.27;33.56;92542.25;2038240;70;20139;-75
2021/04/20 09:39:49;;;;;;;4.97;4.18;;;;;;;16.18;32.58;92553.66;2038259;70;20187;-76
2021/04/20 09:42:17;;;;;;;6.03;4.63;;;;;;;14.96;34.32;92552.31;2037870;70;20156;-79
2021/04/20 09:45:05;;;;;;;6.68;4.82;;;;;;;15.20;32.14;92551.88;2037590;70;20235;-76
2021/04/20 09:47:59;;;;;;;6.93;4.82;;;;;;;16.22;32.69;92545.28;2037952;70;20183;-77
2021/04/20 09:50:45;;;;;;;8.63;6.40;;;;;;;15.99;33.45;92549.38;2037517;70;20606;-72
2021/04/20 09:53:17;;;;;;;4.78;4.28;;;;;;;16.35;31.69;92551.41;2038049;70;20198;-74
2021/04/20 09:55:50;;;;;;;5.85;4.38;;;;;;;15.83;32.83;92545.91;2037393;70;20151;-77
2021/04/20 09:58:20;;;;;;;4.40;3.65;;;;;;;17.73;31.15;92549.75;2038019;70;20148;-73
2021/04/20 10:00:47;;;;;;;4.60;4.10;;;;;;;18.25;29.29;92547.13;2037241;70;20152;-72
2021/04/20 10:03:33;;;;;;;5.68;4.32;;;;;;;14.85;32.74;92549.72;2036383;70;20164;-69
2021/04/20 10:06:11;;;;;;;5.07;4.18;;;;;;;16.21;30.52;92537.41;2036322;70;20143;-70
2021/04/20 10:09:01;;;;;;;4.60;3.85;;;;;;;16.47;31.28;92541.22;2036416;70;20262;-74
2021/04/20 10:11:58;;;;;;;5.10;4.25;;;;;;;16.37;31.82;92542.97;2037241;70;20153;-72
2021/04/20 10:15:21;;;;;;;4.45;3.90;;;;;;;16.25;31.18;92537.56;2037159;70;20527;-71
2021/04/20 10:18:14;;;;;;;6.78;4.07;;;;;;;16.24;31.27;92541.78;2026644;70;20149;-78
2021/04/20 10:21:18;;;;;;;6.75;3.97;;;;;;;16.28;30.88;92527.75;2037820;70;20219;-72
2021/04/20 10:24:19;;;;;;;4.65;3.85;;;;;;;18.08;30.08;92528.81;2038142;70;20240;-75
2021/04/20 10:26:54;;;;;;;5.68;4.10;;;;;;;17.25;29.21;92529.72;2038233;70;20171;-72
2021/04/20 10:29:38;;;;;;;4.90;3.45;;;;;;;19.07;29.37;92526.66;2038437;70;20151;-71
2021/04/20 10:32:15;;;;;;;4.13;3.20;;;;;;;21.77;24.28;92528.25;2038179;70;20522;-74
2021/04/20 10:34:46;;;;;;;5.05;3.30;;;;;;;20.38;23.95;92521.94;2038299;70;20191;-77
2021/04/20 10:37:12;;;;;;;3.45;2.90;;;;;;;23.28;22.94;92533.94;2038540;70;20251;-71
2021/04/20 10:39:45;;;;;;;3.50;3.15;;;;;;;21.79;22.80;92522.53;2038077;70;20136;-69
2021/04/20 10:42:13;;;;;;;4.63;3.05;;;;;;;19.29;24.13;92522.25;2038445;70;20542;-71
2021/04/20 10:44:39;;;;;;;7.38;3.22;;;;;;;19.80;25.59;92514.97;2038227;70;20140;-72
2021/04/20 10:47:05;;;;;;;3.55;2.80;;;;;;;19.97;23.84;92513.19;2038419;70;20166;-72
2021/04/20 10:49:33;;;;;;;4.70;2.88;;;;;;;20.46;24.64;92516.41;2038409;70;20175;-71
2021/04/20 10:52:00;;;;;;;3.78;3.15;;;;;;;20.20;24.91;92517.28;2038676;70;20147;-74
2021/04/20 10:54:38;;;;;;;4.78;3.38;;;;;;;18.80;25.80;92511.69;2038504;70;20223;-72
2021/04/20 10:57:06;;;;;;;4.00;3.22;;;;;;;17.11;28.64;92515.03;2038422;70;20146;-72
2021/04/20 10:59:39;;;;;;;5.28;4.03;;;;;;;17.82;28.58;92511.66;2038427;70;20144;-71
2021/04/20 11:02:08;;;;;;;5.03;3.40;;;;;;;22.34;24.78;92517.66;2038410;70;20166;-74
2021/04/20 11:04:36;;;;;;;4.60;3.80;;;;;;;23.48;23.94;92521.19;2038460;70;20192;-70
2021/04/20 11:07:41;;;;;;;3.92;3.38;;;;;;;20.31;24.69;92510.41;2038062;70;20147;-75
2021/04/20 11:10:09;;;;;;;6.82;3.22;;;;;;;21.49;25.24;92505.56;2033903;70;20152;-73
2021/04/20 11:12:49;;;;;;;3.45;3.15;;;;;;;27.01;21.65;92505.84;2031467;70;20528;-71
2021/04/20 11:15:27;;;;;;;3.55;3.25;;;;;;;26.20;20.23;92506.72;2033957;70;20204;-70
2021/04/20 11:18:08;;;;;;;5.82;3.88;;;;;;;23.56;20.90;92498.31;2034536;70;20220;-73
2021/04/20 11:20:47;;;;;;;3.65;2.90;;;;;;;23.87;19.55;92496.44;2033286;70;20184;-71
2021/04/20 11:23:18;;;;;;;3.58;2.90;;;;;;;27.33;18.30;92499.25;2030769;70;20136;-72
2021/04/20 11:25:56;;;;;;;3.78;3.17;;;;;;;27.13;19.30;92499.34;2030773;70;20243;-75
2021/04/20 11:28:47;;;;;;;4.68;2.55;;;;;;;26.45;19.83;92493.03;2030333;70;20243;-74
2021/04/20 11:31:18;;;;;;;4.53;2.63;;;;;;;30.67;17.31;92499.91;2032297;70;20160;-72
2021/04/20 11:33:46;;;;;;;4.97;2.55;;;;;;;27.84;16.47;92489.56;2034041;70;20144;-76
2021/04/20 11:36:24;;;;;;;3.20;2.20;;;;;;;31.99;15.68;92487.84;2033919;70;20500;-76
2021/04/20 11:38:59;;;;;;;3.10;2.20;;;;;;;28.02;16.02;92486.53;2034028;70;20188;-73
2021/04/20 11:41:30;;;;;;;2.55;1.75;;;;;;;36.31;12.13;92496.41;2034077;70;20247;-74
2021/04/20 11:44:00;;;;;;;2.47;2.00;;;;;;;34.85;13.04;92491.47;2033679;70;20163;-70
2021/04/20 11:46:33;;;;;;;1.80;1.70;;;;;;;32.61;13.29;92484.19;2037458;70;20231;-78
2021/04/20 11:49:28;;;;;;;3.35;2.00;;;;;;;30.51;13.68;92471.88;2038291;70;20239;-81
2021/04/20 11:51:59;;;;;;;1.90;1.70;;;;;;;33.06;13.58;92477.19;2030289;70;20164;-74
2021/04/20 11:54:28;;;;;;;2.33;1.95;;;;;;;33.48;13.23;92480.41;2030233;70;20529;-80
2021/04/20 11:56:59;;;;;;;1.92;1.70;;;;;;;28.24;15.24;92470.44;2030863;70;20156;-74
2021/04/20 11:59:26;;;;;;;3.30;1.60;;;;;;;30.47;14.87;92469.06;2030543;70;20190;-74
2021/04/20 12:01:53;;;;;;;1.92;1.70;;;;;;;29.43;15.46;92470.63;2030441;70;20176;-72